sensor_id;sensor_type;location;lat;lon;timestamp;P1;durP1;ratioP1;P2;durP2;ratioP2
61590;SDS011;71994;52.410;-1.966;2023-10-31T00:02:41;6.53;;;4.90;;
61590;SDS011;71994;52.410;-1.966;2023-10-31T00:05:47;7.32;;;5.18;;
61590;SDS011;71994;52.410;-1.966;2023-10-31T00:08:54;17.13;;;5.25;;
61590;SDS011;71994;52.410;-1.966;2023-10-31T00:12:00;7.45;;;5.07;;
61590;SDS011;71994;52.410;-1.966;2023-10-31T00:15:10;9.60;;;5.30;;
61590;SDS011;71994;52.410;-1.966;2023-10-31T00:18:16;8.80;;;5.70;;
61590;SDS011;71994;52.410;-1.966;2023-10-31T00:21:22;8.75;;;5.35;;
61590;SDS011;71994;52.410;-1.966;2023-10-31T00:24:29;6.88;;;4.78;;
61590;SDS011;71994;52.410;-1.966;2023-10-31T00:27:35;7.82;;;4.70;;
61590;SDS011;71994;52.410;-1.966;2023-10-31T00:30:44;7.70;;;4.95;;
61590;SDS011;71994;52.410;-1.966;2023-10-31T00:34:00;6.80;;;4.93;;
61590;SDS011;71994;52.410;-1.966;2023-10-31T00:37:06;8.00;;;5.13;;
61590;SDS011;71994;52.410;-1.966;2023-10-31T00:40:13;7.85;;;4.72;;
61590;SDS011;71994;52.410;-1.966;2023-10-31T00:43:20;10.35;;;4.90;;
61590;SDS011;71994;52.410;-1.966;2023-10-31T00:46:29;7.28;;;4.90;;
61590;SDS011;71994;52.410;-1.966;2023-10-31T00:49:35;6.80;;;4.60;;
61590;SDS011;71994;52.410;-1.966;2023-10-31T00:52:41;7.55;;;4.80;;
61590;SDS011;71994;52.410;-1.966;2023-10-31T00:55:48;7.55;;;4.78;;
61590;SDS011;71994;52.410;-1.966;2023-10-31T00:58:54;6.25;;;4.85;;
61590;SDS011;71994;52.410;-1.966;2023-10-31T01:02:04;6.35;;;4.38;;
61590;SDS011;71994;52.410;-1.966;2023-10-31T01:05:10;8.90;;;5.37;;
61590;SDS011;71994;52.410;-1.966;2023-10-31T01:08:16;7.82;;;4.60;;
61590;SDS011;71994;52.410;-1.966;2023-10-31T01:11:23;6.35;;;4.40;;
61590;SDS011;71994;52.410;-1.966;2023-10-31T01:14:29;5.70;;;4.32;;
61590;SDS011;71994;52.410;-1.966;2023-10-31T01:17:38;6.30;;;4.22;;
61590;SDS011;71994;52.410;-1.966;2023-10-31T01:20:44;5.73;;;4.37;;
61590;SDS011;71994;52.410;-1.966;2023-10-31T01:23:50;6.70;;;4.38;;
61590;SDS011;71994;52.410;-1.966;2023-10-31T01:26:57;7.90;;;4.50;;
61590;SDS011;71994;52.410;-1.966;2023-10-31T01:30:03;7.25;;;4.38;;
61590;SDS011;71994;52.410;-1.966;2023-10-31T01:33:13;6.85;;;4.18;;
61590;SDS011;71994;52.410;-1.966;2023-10-31T01:36:19;6.50;;;4.50;;
61590;SDS011;71994;52.410;-1.966;2023-10-31T01:39:30;5.80;;;4.60;;
61590;SDS011;71994;52.410;-1.966;2023-10-31T01:42:36;6.65;;;4.38;;
61590;SDS011;71994;52.410;-1.966;2023-10-31T01:45:43;6.75;;;4.25;;
61590;SDS011;71994;52.410;-1.966;2023-10-31T01:48:52;6.20;;;4.25;;
61590;SDS011;71994;52.410;-1.966;2023-10-31T01:51:59;6.63;;;4.00;;
61590;SDS011;71994;52.410;-1.966;2023-10-31T01:55:06;6.20;;;3.92;;
61590;SDS011;71994;52.410;-1.966;2023-10-31T01:58:17;7.78;;;4.10;;
61590;SDS011;71994;52.410;-1.966;2023-10-31T02:01:25;5.78;;;4.18;;
61590;SDS011;71994;52.410;-1.966;2023-10-31T02:04:34;5.50;;;3.90;;
61590;SDS011;71994;52.410;-1.966;2023-10-31T02:07:40;4.90;;;3.77;;
61590;SDS011;71994;52.410;-1.966;2023-10-31T02:13:56;5.75;;;3.60;;
61590;SDS011;71994;52.410;-1.966;2023-10-31T02:17:02;6.20;;;3.80;;
61590;SDS011;71994;52.410;-1.966;2023-10-31T02:20:12;5.80;;;3.33;;
61590;SDS011;71994;52.410;-1.966;2023-10-31T02:23:21;5.70;;;3.55;;
61590;SDS011;71994;52.410;-1.966;2023-10-31T02:26:30;6.00;;;3.53;;
61590;SDS011;71994;52.410;-1.966;2023-10-31T02:32:44;4.60;;;3.47;;
61590;SDS011;71994;52.410;-1.966;2023-10-31T02:35:50;4.75;;;3.58;;
61590;SDS011;71994;52.410;-1.966;2023-10-31T02:39:00;4.80;;;3.03;;
61590;SDS011;71994;52.410;-1.966;2023-10-31T02:42:06;5.68;;;3.25;;
61590;SDS011;71994;52.410;-1.966;2023-10-31T02:45:12;4.93;;;3.03;;
61590;SDS011;71994;52.410;-1.966;2023-10-31T02:48:20;3.92;;;3.10;;
61590;SDS011;71994;52.410;-1.966;2023-10-31T02:51:27;5.72;;;3.03;;
61590;SDS011;71994;52.410;-1.966;2023-10-31T02:54:36;4.88;;;3.38;;
61590;SDS011;71994;52.410;-1.966;2023-10-31T02:57:42;4.40;;;2.95;;
61590;SDS011;71994;52.410;-1.966;2023-10-31T03:00:48;4.35;;;3.08;;
61590;SDS011;71994;52.410;-1.966;2023-10-31T03:03:55;5.07;;;2.95;;
61590;SDS011;71994;52.410;-1.966;2023-10-31T03:07:01;5.38;;;2.85;;
61590;SDS011;71994;52.410;-1.966;2023-10-31T03:10:10;5.18;;;3.17;;
61590;SDS011;71994;52.410;-1.966;2023-10-31T03:13:16;4.43;;;2.90;;
61590;SDS011;71994;52.410;-1.966;2023-10-31T03:16:23;5.10;;;2.63;;
61590;SDS011;71994;52.410;-1.966;2023-10-31T03:19:29;3.65;;;2.90;;
61590;SDS011;71994;52.410;-1.966;2023-10-31T03:22:35;3.45;;;2.58;;
61590;SDS011;71994;52.410;-1.966;2023-10-31T03:25:44;4.10;;;2.70;;
61590;SDS011;71994;52.410;-1.966;2023-10-31T03:28:50;4.67;;;3.10;;
61590;SDS011;71994;52.410;-1.966;2023-10-31T03:31:59;3.60;;;2.58;;
61590;SDS011;71994;52.410;-1.966;2023-10-31T03:35:07;4.18;;;2.83;;
61590;SDS011;71994;52.410;-1.966;2023-10-31T03:38:14;4.13;;;2.75;;
61590;SDS011;71994;52.410;-1.966;2023-10-31T03:41:23;3.35;;;2.40;;
61590;SDS011;71994;52.410;-1.966;2023-10-31T03:44:32;4.07;;;2.60;;
61590;SDS011;71994;52.410;-1.966;2023-10-31T03:47:38;3.90;;;2.47;;
61590;SDS011;71994;52.410;-1.966;2023-10-31T03:50:44;3.65;;;2.55;;
61590;SDS011;71994;52.410;-1.966;2023-10-31T03:53:52;3.90;;;2.72;;
61590;SDS011;71994;52.410;-1.966;2023-10-31T03:57:01;5.40;;;2.45;;
61590;SDS011;71994;52.410;-1.966;2023-10-31T04:00:07;4.07;;;2.47;;
61590;SDS011;71994;52.410;-1.966;2023-10-31T04:03:14;4.28;;;2.50;;
61590;SDS011;71994;52.410;-1.966;2023-10-31T04:06:20;3.83;;;2.42;;
61590;SDS011;71994;52.410;-1.966;2023-10-31T04:09:26;3.90;;;2.47;;
61590;SDS011;71994;52.410;-1.966;2023-10-31T04:12:35;3.17;;;2.05;;
61590;SDS011;71994;52.410;-1.966;2023-10-31T04:15:43;3.63;;;2.40;;
61590;SDS011;71994;52.410;-1.966;2023-10-31T04:18:49;3.65;;;2.10;;
61590;SDS011;71994;52.410;-1.966;2023-10-31T04:21:55;4.25;;;2.60;;
61590;SDS011;71994;52.410;-1.966;2023-10-31T04:25:02;3.97;;;2.33;;
61590;SDS011;71994;52.410;-1.966;2023-10-31T04:28:11;3.63;;;2.20;;
61590;SDS011;71994;52.410;-1.966;2023-10-31T04:31:17;3.30;;;2.03;;
61590;SDS011;71994;52.410;-1.966;2023-10-31T04:34:23;2.60;;;1.83;;
61590;SDS011;71994;52.410;-1.966;2023-10-31T04:37:31;4.60;;;2.30;;
61590;SDS011;71994;52.410;-1.966;2023-10-31T04:40:40;3.90;;;2.28;;
61590;SDS011;71994;52.410;-1.966;2023-10-31T04:43:51;3.20;;;2.20;;
61590;SDS011;71994;52.410;-1.966;2023-10-31T04:46:58;3.30;;;1.90;;
61590;SDS011;71994;52.410;-1.966;2023-10-31T04:50:04;3.22;;;2.10;;
61590;SDS011;71994;52.410;-1.966;2023-10-31T04:53:10;3.28;;;1.95;;
61590;SDS011;71994;52.410;-1.966;2023-10-31T04:56:17;3.47;;;1.92;;
61590;SDS011;71994;52.410;-1.966;2023-10-31T04:59:29;3.70;;;1.75;;
61590;SDS011;71994;52.410;-1.966;2023-10-31T05:02:35;4.13;;;2.13;;
61590;SDS011;71994;52.410;-1.966;2023-10-31T05:05:41;4.50;;;1.92;;
61590;SDS011;71994;52.410;-1.966;2023-10-31T05:08:51;2.73;;;1.67;;
61590;SDS011;71994;52.410;-1.966;2023-10-31T05:11:57;3.63;;;2.05;;
61590;SDS011;71994;52.410;-1.966;2023-10-31T05:15:07;2.90;;;1.83;;
61590;SDS011;71994;52.410;-1.966;2023-10-31T05:18:13;2.88;;;1.80;;
61590;SDS011;71994;52.410;-1.966;2023-10-31T05:21:20;3.35;;;1.70;;
61590;SDS011;71994;52.410;-1.966;2023-10-31T05:24:26;2.72;;;1.58;;
61590;SDS011;71994;52.410;-1.966;2023-10-31T05:27:34;3.40;;;1.90;;
61590;SDS011;71994;52.410;-1.966;2023-10-31T05:30:43;3.40;;;1.80;;
61590;SDS011;71994;52.410;-1.966;2023-10-31T05:33:49;2.85;;;1.80;;
61590;SDS011;71994;52.410;-1.966;2023-10-31T05:36:56;3.67;;;1.90;;
61590;SDS011;71994;52.410;-1.966;2023-10-31T05:40:02;5.03;;;1.73;;
61590;SDS011;71994;52.410;-1.966;2023-10-31T05:43:09;3.97;;;1.77;;
61590;SDS011;71994;52.410;-1.966;2023-10-31T05:46:18;3.42;;;2.00;;
61590;SDS011;71994;52.410;-1.966;2023-10-31T05:49:25;2.85;;;1.63;;
61590;SDS011;71994;52.410;-1.966;2023-10-31T05:52:31;2.60;;;1.55;;
61590;SDS011;71994;52.410;-1.966;2023-10-31T05:55:38;2.63;;;1.63;;
61590;SDS011;71994;52.410;-1.966;2023-10-31T05:58:44;3.78;;;1.70;;
61590;SDS011;71994;52.410;-1.966;2023-10-31T06:01:59;2.60;;;1.58;;
61590;SDS011;71994;52.410;-1.966;2023-10-31T06:05:06;2.55;;;1.55;;
61590;SDS011;71994;52.410;-1.966;2023-10-31T06:08:12;2.50;;;1.65;;
61590;SDS011;71994;52.410;-1.966;2023-10-31T06:11:19;2.92;;;1.80;;
61590;SDS011;71994;52.410;-1.966;2023-10-31T06:14:25;3.03;;;1.60;;
61590;SDS011;71994;52.410;-1.966;2023-10-31T06:17:34;3.42;;;1.73;;
61590;SDS011;71994;52.410;-1.966;2023-10-31T06:20:40;3.00;;;1.53;;
61590;SDS011;71994;52.410;-1.966;2023-10-31T06:23:46;2.67;;;1.55;;
61590;SDS011;71994;52.410;-1.966;2023-10-31T06:26:53;2.67;;;1.65;;
61590;SDS011;71994;52.410;-1.966;2023-10-31T06:30:01;2.25;;;1.52;;
61590;SDS011;71994;52.410;-1.966;2023-10-31T06:33:10;2.45;;;1.58;;
61590;SDS011;71994;52.410;-1.966;2023-10-31T06:36:16;3.13;;;1.60;;
61590;SDS011;71994;52.410;-1.966;2023-10-31T06:39:22;2.63;;;1.58;;
61590;SDS011;71994;52.410;-1.966;2023-10-31T06:42:29;2.65;;;1.48;;
61590;SDS011;71994;52.410;-1.966;2023-10-31T06:45:35;2.55;;;1.70;;
61590;SDS011;71994;52.410;-1.966;2023-10-31T06:48:47;2.78;;;1.42;;
61590;SDS011;71994;52.410;-1.966;2023-10-31T06:51:54;2.88;;;1.73;;
61590;SDS011;71994;52.410;-1.966;2023-10-31T06:55:00;3.80;;;1.70;;
61590;SDS011;71994;52.410;-1.966;2023-10-31T06:58:06;3.15;;;2.10;;
61590;SDS011;71994;52.410;-1.966;2023-10-31T07:01:12;2.35;;;1.60;;
61590;SDS011;71994;52.410;-1.966;2023-10-31T07:04:25;2.75;;;1.80;;
61590;SDS011;71994;52.410;-1.966;2023-10-31T07:07:31;3.67;;;1.83;;
61590;SDS011;71994;52.410;-1.966;2023-10-31T07:10:38;2.67;;;1.70;;
61590;SDS011;71994;52.410;-1.966;2023-10-31T07:13:44;3.15;;;1.77;;
61590;SDS011;71994;52.410;-1.966;2023-10-31T07:16:50;3.38;;;1.58;;
61590;SDS011;71994;52.410;-1.966;2023-10-31T07:19:59;3.45;;;1.50;;
61590;SDS011;71994;52.410;-1.966;2023-10-31T07:23:05;2.60;;;1.60;;
61590;SDS011;71994;52.410;-1.966;2023-10-31T07:26:11;2.55;;;1.42;;
61590;SDS011;71994;52.410;-1.966;2023-10-31T07:29:18;2.70;;;1.38;;
61590;SDS011;71994;52.410;-1.966;2023-10-31T07:32:24;4.32;;;1.70;;
61590;SDS011;71994;52.410;-1.966;2023-10-31T07:35:34;2.97;;;1.50;;
61590;SDS011;71994;52.410;-1.966;2023-10-31T07:38:40;4.53;;;1.37;;
61590;SDS011;71994;52.410;-1.966;2023-10-31T07:41:46;4.30;;;1.50;;
61590;SDS011;71994;52.410;-1.966;2023-10-31T07:44:52;2.97;;;1.27;;
61590;SDS011;71994;52.410;-1.966;2023-10-31T07:47:58;2.58;;;1.40;;
61590;SDS011;71994;52.410;-1.966;2023-10-31T07:51:08;2.65;;;1.27;;
61590;SDS011;71994;52.410;-1.966;2023-10-31T07:54:14;3.17;;;1.33;;
61590;SDS011;71994;52.410;-1.966;2023-10-31T07:57:21;4.82;;;1.50;;
61590;SDS011;71994;52.410;-1.966;2023-10-31T08:00:27;2.42;;;1.42;;
61590;SDS011;71994;52.410;-1.966;2023-10-31T08:03:34;3.13;;;1.42;;
61590;SDS011;71994;52.410;-1.966;2023-10-31T08:06:43;2.92;;;1.38;;
61590;SDS011;71994;52.410;-1.966;2023-10-31T08:09:49;3.30;;;1.60;;
61590;SDS011;71994;52.410;-1.966;2023-10-31T08:12:56;4.45;;;1.50;;
61590;SDS011;71994;52.410;-1.966;2023-10-31T08:16:02;3.75;;;1.40;;
61590;SDS011;71994;52.410;-1.966;2023-10-31T08:19:09;3.60;;;1.60;;
61590;SDS011;71994;52.410;-1.966;2023-10-31T08:22:18;3.53;;;1.52;;
61590;SDS011;71994;52.410;-1.966;2023-10-31T08:25:25;11.48;;;2.75;;
61590;SDS011;71994;52.410;-1.966;2023-10-31T08:28:33;9.13;;;2.25;;
61590;SDS011;71994;52.410;-1.966;2023-10-31T08:31:42;11.68;;;3.08;;
61590;SDS011;71994;52.410;-1.966;2023-10-31T08:34:49;11.93;;;3.53;;
61590;SDS011;71994;52.410;-1.966;2023-10-31T08:37:59;12.45;;;3.15;;
61590;SDS011;71994;52.410;-1.966;2023-10-31T08:41:05;17.45;;;3.47;;
61590;SDS011;71994;52.410;-1.966;2023-10-31T08:44:13;9.45;;;2.75;;
61590;SDS011;71994;52.410;-1.966;2023-10-31T08:47:19;11.02;;;3.35;;
61590;SDS011;71994;52.410;-1.966;2023-10-31T08:50:26;13.73;;;3.63;;
61590;SDS011;71994;52.410;-1.966;2023-10-31T08:53:35;11.25;;;3.13;;
61590;SDS011;71994;52.410;-1.966;2023-10-31T08:56:41;10.83;;;2.87;;
61590;SDS011;71994;52.410;-1.966;2023-10-31T08:59:47;9.68;;;3.10;;
61590;SDS011;71994;52.410;-1.966;2023-10-31T09:02:53;11.93;;;3.45;;
61590;SDS011;71994;52.410;-1.966;2023-10-31T09:06:00;7.88;;;2.90;;
61590;SDS011;71994;52.410;-1.966;2023-10-31T09:09:09;10.02;;;3.25;;
61590;SDS011;71994;52.410;-1.966;2023-10-31T09:12:16;9.20;;;2.60;;
61590;SDS011;71994;52.410;-1.966;2023-10-31T09:15:22;8.40;;;2.75;;
61590;SDS011;71994;52.410;-1.966;2023-10-31T09:18:28;8.45;;;3.22;;
61590;SDS011;71994;52.410;-1.966;2023-10-31T09:21:35;10.75;;;3.30;;
61590;SDS011;71994;52.410;-1.966;2023-10-31T09:24:44;8.68;;;3.05;;
61590;SDS011;71994;52.410;-1.966;2023-10-31T09:27:50;10.43;;;2.93;;
61590;SDS011;71994;52.410;-1.966;2023-10-31T09:30:56;9.20;;;2.50;;
61590;SDS011;71994;52.410;-1.966;2023-10-31T09:34:04;9.55;;;2.83;;
61590;SDS011;71994;52.410;-1.966;2023-10-31T09:37:10;7.95;;;2.60;;
61590;SDS011;71994;52.410;-1.966;2023-10-31T09:40:19;6.05;;;2.38;;
61590;SDS011;71994;52.410;-1.966;2023-10-31T09:43:26;8.40;;;2.60;;
61590;SDS011;71994;52.410;-1.966;2023-10-31T09:46:32;5.15;;;2.40;;
61590;SDS011;71994;52.410;-1.966;2023-10-31T09:49:40;7.53;;;2.70;;
61590;SDS011;71994;52.410;-1.966;2023-10-31T09:52:46;7.03;;;2.20;;
61590;SDS011;71994;52.410;-1.966;2023-10-31T09:55:56;6.43;;;2.20;;
61590;SDS011;71994;52.410;-1.966;2023-10-31T09:59:05;7.00;;;2.43;;
61590;SDS011;71994;52.410;-1.966;2023-10-31T10:02:11;8.53;;;2.23;;
61590;SDS011;71994;52.410;-1.966;2023-10-31T10:05:17;5.15;;;2.22;;
61590;SDS011;71994;52.410;-1.966;2023-10-31T10:08:24;8.85;;;2.72;;
61590;SDS011;71994;52.410;-1.966;2023-10-31T10:11:33;10.32;;;2.60;;
61590;SDS011;71994;52.410;-1.966;2023-10-31T10:14:40;6.67;;;2.30;;
61590;SDS011;71994;52.410;-1.966;2023-10-31T10:17:50;6.78;;;2.58;;
61590;SDS011;71994;52.410;-1.966;2023-10-31T10:20:56;5.00;;;2.15;;
61590;SDS011;71994;52.410;-1.966;2023-10-31T10:24:04;5.50;;;2.10;;
61590;SDS011;71994;52.410;-1.966;2023-10-31T10:27:13;6.30;;;2.60;;
61590;SDS011;71994;52.410;-1.966;2023-10-31T10:30:19;5.85;;;1.95;;
61590;SDS011;71994;52.410;-1.966;2023-10-31T10:33:29;5.97;;;2.33;;
61590;SDS011;71994;52.410;-1.966;2023-10-31T10:36:35;6.32;;;2.35;;
61590;SDS011;71994;52.410;-1.966;2023-10-31T10:39:41;3.92;;;1.98;;
61590;SDS011;71994;52.410;-1.966;2023-10-31T10:42:55;9.27;;;2.20;;
61590;SDS011;71994;52.410;-1.966;2023-10-31T10:46:06;4.80;;;1.77;;
61590;SDS011;71994;52.410;-1.966;2023-10-31T10:49:17;4.18;;;1.70;;
61590;SDS011;71994;52.410;-1.966;2023-10-31T10:52:28;4.78;;;1.85;;
61590;SDS011;71994;52.410;-1.966;2023-10-31T10:55:43;3.70;;;1.70;;
61590;SDS011;71994;52.410;-1.966;2023-10-31T10:58:55;4.63;;;1.90;;
61590;SDS011;71994;52.410;-1.966;2023-10-31T11:02:05;4.78;;;1.75;;
61590;SDS011;71994;52.410;-1.966;2023-10-31T11:05:13;4.45;;;1.58;;
61590;SDS011;71994;52.410;-1.966;2023-10-31T11:08:19;3.10;;;1.83;;
61590;SDS011;71994;52.410;-1.966;2023-10-31T11:11:26;5.03;;;1.55;;
61590;SDS011;71994;52.410;-1.966;2023-10-31T11:14:36;4.20;;;1.83;;
61590;SDS011;71994;52.410;-1.966;2023-10-31T11:17:43;3.95;;;1.77;;
61590;SDS011;71994;52.410;-1.966;2023-10-31T11:20:51;4.85;;;1.73;;
61590;SDS011;71994;52.410;-1.966;2023-10-31T11:23:57;2.97;;;1.40;;
61590;SDS011;71994;52.410;-1.966;2023-10-31T11:27:05;3.67;;;1.50;;
61590;SDS011;71994;52.410;-1.966;2023-10-31T11:30:22;5.25;;;1.70;;
61590;SDS011;71994;52.410;-1.966;2023-10-31T11:33:33;3.85;;;1.48;;
61590;SDS011;71994;52.410;-1.966;2023-10-31T11:36:46;5.07;;;1.55;;
61590;SDS011;71994;52.410;-1.966;2023-10-31T11:43:20;3.60;;;1.45;;
61590;SDS011;71994;52.410;-1.966;2023-10-31T11:46:30;4.10;;;1.55;;
61590;SDS011;71994;52.410;-1.966;2023-10-31T11:49:46;2.67;;;1.23;;
61590;SDS011;71994;52.410;-1.966;2023-10-31T11:52:59;2.95;;;1.50;;
61590;SDS011;71994;52.410;-1.966;2023-10-31T11:56:07;3.50;;;1.50;;
61590;SDS011;71994;52.410;-1.966;2023-10-31T11:59:18;6.55;;;1.40;;
61590;SDS011;71994;52.410;-1.966;2023-10-31T12:02:29;3.20;;;1.23;;
61590;SDS011;71994;52.410;-1.966;2023-10-31T12:05:40;3.35;;;1.30;;
61590;SDS011;71994;52.410;-1.966;2023-10-31T12:08:58;3.33;;;1.45;;
61590;SDS011;71994;52.410;-1.966;2023-10-31T12:12:06;2.92;;;1.10;;
61590;SDS011;71994;52.410;-1.966;2023-10-31T12:15:13;2.92;;;1.10;;
61590;SDS011;71994;52.410;-1.966;2023-10-31T12:18:22;4.60;;;1.83;;
61590;SDS011;71994;52.410;-1.966;2023-10-31T12:21:37;2.90;;;1.37;;
61590;SDS011;71994;52.410;-1.966;2023-10-31T12:24:45;3.33;;;1.05;;
61590;SDS011;71994;52.410;-1.966;2023-10-31T12:27:51;2.35;;;1.17;;
61590;SDS011;71994;52.410;-1.966;2023-10-31T12:30:58;2.70;;;1.20;;
61590;SDS011;71994;52.410;-1.966;2023-10-31T12:34:07;2.33;;;1.10;;
61590;SDS011;71994;52.410;-1.966;2023-10-31T12:37:14;3.85;;;1.02;;
61590;SDS011;71994;52.410;-1.966;2023-10-31T12:40:21;2.90;;;1.23;;
61590;SDS011;71994;52.410;-1.966;2023-10-31T12:43:27;4.60;;;1.02;;
61590;SDS011;71994;52.410;-1.966;2023-10-31T12:46:34;2.38;;;0.93;;
61590;SDS011;71994;52.410;-1.966;2023-10-31T12:49:43;3.13;;;1.00;;
61590;SDS011;71994;52.410;-1.966;2023-10-31T12:52:49;2.67;;;1.00;;
61590;SDS011;71994;52.410;-1.966;2023-10-31T12:55:57;1.50;;;0.90;;
61590;SDS011;71994;52.410;-1.966;2023-10-31T12:59:03;1.88;;;0.93;;
61590;SDS011;71994;52.410;-1.966;2023-10-31T13:02:10;2.38;;;0.98;;
61590;SDS011;71994;52.410;-1.966;2023-10-31T13:05:26;1.90;;;1.00;;
61590;SDS011;71994;52.410;-1.966;2023-10-31T13:08:34;2.17;;;0.90;;
61590;SDS011;71994;52.410;-1.966;2023-10-31T13:11:40;1.85;;;1.02;;
61590;SDS011;71994;52.410;-1.966;2023-10-31T13:15:03;2.00;;;1.00;;
61590;SDS011;71994;52.410;-1.966;2023-10-31T13:18:27;1.98;;;1.00;;
61590;SDS011;71994;52.410;-1.966;2023-10-31T13:21:36;1.35;;;0.80;;
61590;SDS011;71994;52.410;-1.966;2023-10-31T13:24:58;2.15;;;0.93;;
61590;SDS011;71994;52.410;-1.966;2023-10-31T13:28:27;2.47;;;0.90;;
61590;SDS011;71994;52.410;-1.966;2023-10-31T13:31:35;2.08;;;0.90;;
61590;SDS011;71994;52.410;-1.966;2023-10-31T13:34:42;1.90;;;0.98;;
61590;SDS011;71994;52.410;-1.966;2023-10-31T13:37:54;1.65;;;0.88;;
61590;SDS011;71994;52.410;-1.966;2023-10-31T13:41:00;1.67;;;0.90;;
61590;SDS011;71994;52.410;-1.966;2023-10-31T13:44:06;2.30;;;0.90;;
61590;SDS011;71994;52.410;-1.966;2023-10-31T13:47:12;2.00;;;0.80;;
61590;SDS011;71994;52.410;-1.966;2023-10-31T13:50:19;2.00;;;0.82;;
61590;SDS011;71994;52.410;-1.966;2023-10-31T13:53:28;2.00;;;0.70;;
61590;SDS011;71994;52.410;-1.966;2023-10-31T13:56:35;2.23;;;0.97;;
61590;SDS011;71994;52.410;-1.966;2023-10-31T13:59:41;2.00;;;0.90;;
61590;SDS011;71994;52.410;-1.966;2023-10-31T14:02:47;1.77;;;0.95;;
61590;SDS011;71994;52.410;-1.966;2023-10-31T14:05:53;1.63;;;0.80;;
61590;SDS011;71994;52.410;-1.966;2023-10-31T14:09:03;2.03;;;0.70;;
61590;SDS011;71994;52.410;-1.966;2023-10-31T14:12:10;2.08;;;0.98;;
61590;SDS011;71994;52.410;-1.966;2023-10-31T14:15:16;2.13;;;0.95;;
61590;SDS011;71994;52.410;-1.966;2023-10-31T14:18:24;2.08;;;0.88;;
61590;SDS011;71994;52.410;-1.966;2023-10-31T14:21:31;2.15;;;0.98;;
61590;SDS011;71994;52.410;-1.966;2023-10-31T14:24:40;2.90;;;1.02;;
61590;SDS011;71994;52.410;-1.966;2023-10-31T14:27:46;3.90;;;1.00;;
61590;SDS011;71994;52.410;-1.966;2023-10-31T14:30:52;1.80;;;0.93;;
61590;SDS011;71994;52.410;-1.966;2023-10-31T14:33:58;1.60;;;0.85;;
61590;SDS011;71994;52.410;-1.966;2023-10-31T14:37:04;1.58;;;0.80;;
61590;SDS011;71994;52.410;-1.966;2023-10-31T14:40:14;1.67;;;1.00;;
61590;SDS011;71994;52.410;-1.966;2023-10-31T14:43:20;2.03;;;1.02;;
61590;SDS011;71994;52.410;-1.966;2023-10-31T14:46:27;2.55;;;1.00;;
61590;SDS011;71994;52.410;-1.966;2023-10-31T14:49:34;1.92;;;1.00;;
61590;SDS011;71994;52.410;-1.966;2023-10-31T14:52:41;2.22;;;1.00;;
61590;SDS011;71994;52.410;-1.966;2023-10-31T14:55:50;3.25;;;1.10;;
61590;SDS011;71994;52.410;-1.966;2023-10-31T14:58:56;1.83;;;0.90;;
61590;SDS011;71994;52.410;-1.966;2023-10-31T15:02:05;2.33;;;1.10;;
61590;SDS011;71994;52.410;-1.966;2023-10-31T15:05:11;1.85;;;0.98;;
61590;SDS011;71994;52.410;-1.966;2023-10-31T15:08:17;2.17;;;1.00;;
61590;SDS011;71994;52.410;-1.966;2023-10-31T15:11:26;1.65;;;0.90;;
61590;SDS011;71994;52.410;-1.966;2023-10-31T15:14:32;2.03;;;1.00;;
61590;SDS011;71994;52.410;-1.966;2023-10-31T15:17:39;2.22;;;1.00;;
61590;SDS011;71994;52.410;-1.966;2023-10-31T15:20:45;2.58;;;1.05;;
61590;SDS011;71994;52.410;-1.966;2023-10-31T15:23:51;2.38;;;1.00;;
61590;SDS011;71994;52.410;-1.966;2023-10-31T15:27:04;3.03;;;1.10;;
61590;SDS011;71994;52.410;-1.966;2023-10-31T15:30:10;1.90;;;0.97;;
61590;SDS011;71994;52.410;-1.966;2023-10-31T15:33:17;1.70;;;1.10;;
61590;SDS011;71994;52.410;-1.966;2023-10-31T15:36:23;1.83;;;1.10;;
61590;SDS011;71994;52.410;-1.966;2023-10-31T15:39:29;2.60;;;1.00;;
61590;SDS011;71994;52.410;-1.966;2023-10-31T15:42:39;1.83;;;0.90;;
61590;SDS011;71994;52.410;-1.966;2023-10-31T15:45:45;2.13;;;1.00;;
61590;SDS011;71994;52.410;-1.966;2023-10-31T15:48:51;2.55;;;1.08;;
61590;SDS011;71994;52.410;-1.966;2023-10-31T15:51:58;1.90;;;1.20;;
61590;SDS011;71994;52.410;-1.966;2023-10-31T15:55:04;2.00;;;1.10;;
61590;SDS011;71994;52.410;-1.966;2023-10-31T15:58:14;1.77;;;1.10;;
61590;SDS011;71994;52.410;-1.966;2023-10-31T16:01:21;2.00;;;1.30;;
61590;SDS011;71994;52.410;-1.966;2023-10-31T16:04:27;1.95;;;1.08;;
61590;SDS011;71994;52.410;-1.966;2023-10-31T16:07:33;3.30;;;1.50;;
61590;SDS011;71994;52.410;-1.966;2023-10-31T16:10:40;1.52;;;0.93;;
61590;SDS011;71994;52.410;-1.966;2023-10-31T16:13:49;2.47;;;1.20;;
61590;SDS011;71994;52.410;-1.966;2023-10-31T16:16:55;2.83;;;1.63;;
61590;SDS011;71994;52.410;-1.966;2023-10-31T16:20:02;2.13;;;1.35;;
61590;SDS011;71994;52.410;-1.966;2023-10-31T16:23:08;2.92;;;1.45;;
61590;SDS011;71994;52.410;-1.966;2023-10-31T16:26:15;2.08;;;1.40;;
61590;SDS011;71994;52.410;-1.966;2023-10-31T16:29:24;1.75;;;1.27;;
61590;SDS011;71994;52.410;-1.966;2023-10-31T16:32:30;3.15;;;1.40;;
61590;SDS011;71994;52.410;-1.966;2023-10-31T16:35:37;2.20;;;1.42;;
61590;SDS011;71994;52.410;-1.966;2023-10-31T16:38:43;2.17;;;1.30;;
61590;SDS011;71994;52.410;-1.966;2023-10-31T16:41:49;2.50;;;1.30;;
61590;SDS011;71994;52.410;-1.966;2023-10-31T16:44:58;1.60;;;1.30;;
61590;SDS011;71994;52.410;-1.966;2023-10-31T16:48:07;2.05;;;1.35;;
61590;SDS011;71994;52.410;-1.966;2023-10-31T16:51:14;2.00;;;1.38;;
61590;SDS011;71994;52.410;-1.966;2023-10-31T16:54:21;2.22;;;1.45;;
61590;SDS011;71994;52.410;-1.966;2023-10-31T16:57:27;2.40;;;1.40;;
61590;SDS011;71994;52.410;-1.966;2023-10-31T17:00:37;2.38;;;1.45;;
61590;SDS011;71994;52.410;-1.966;2023-10-31T17:03:45;2.50;;;1.40;;
61590;SDS011;71994;52.410;-1.966;2023-10-31T17:06:51;1.77;;;1.13;;
61590;SDS011;71994;52.410;-1.966;2023-10-31T17:09:57;2.58;;;1.45;;
61590;SDS011;71994;52.410;-1.966;2023-10-31T17:13:05;1.80;;;1.20;;
61590;SDS011;71994;52.410;-1.966;2023-10-31T17:16:14;2.40;;;1.40;;
61590;SDS011;71994;52.410;-1.966;2023-10-31T17:19:20;2.03;;;1.17;;
61590;SDS011;71994;52.410;-1.966;2023-10-31T17:22:27;1.58;;;1.08;;
61590;SDS011;71994;52.410;-1.966;2023-10-31T17:25:35;2.33;;;1.30;;
61590;SDS011;71994;52.410;-1.966;2023-10-31T17:28:47;4.72;;;1.48;;
61590;SDS011;71994;52.410;-1.966;2023-10-31T17:32:01;2.25;;;1.30;;
61590;SDS011;71994;52.410;-1.966;2023-10-31T17:35:08;2.15;;;1.10;;
61590;SDS011;71994;52.410;-1.966;2023-10-31T17:38:14;2.60;;;1.10;;
61590;SDS011;71994;52.410;-1.966;2023-10-31T17:41:24;2.00;;;1.10;;
61590;SDS011;71994;52.410;-1.966;2023-10-31T17:44:30;2.08;;;1.20;;
61590;SDS011;71994;52.410;-1.966;2023-10-31T17:47:40;2.10;;;1.20;;
61590;SDS011;71994;52.410;-1.966;2023-10-31T17:50:46;1.30;;;0.90;;
61590;SDS011;71994;52.410;-1.966;2023-10-31T17:53:52;1.75;;;1.23;;
61590;SDS011;71994;52.410;-1.966;2023-10-31T17:56:59;2.17;;;1.05;;
61590;SDS011;71994;52.410;-1.966;2023-10-31T18:00:06;1.90;;;1.23;;
61590;SDS011;71994;52.410;-1.966;2023-10-31T18:03:16;1.95;;;1.10;;
61590;SDS011;71994;52.410;-1.966;2023-10-31T18:06:22;2.40;;;1.17;;
61590;SDS011;71994;52.410;-1.966;2023-10-31T18:09:28;2.58;;;1.30;;
61590;SDS011;71994;52.410;-1.966;2023-10-31T18:12:35;2.75;;;1.20;;
61590;SDS011;71994;52.410;-1.966;2023-10-31T18:15:41;2.88;;;1.40;;
61590;SDS011;71994;52.410;-1.966;2023-10-31T18:18:50;2.83;;;1.40;;
61590;SDS011;71994;52.410;-1.966;2023-10-31T18:21:56;3.00;;;1.40;;
61590;SDS011;71994;52.410;-1.966;2023-10-31T18:25:03;4.03;;;1.70;;
61590;SDS011;71994;52.410;-1.966;2023-10-31T18:28:10;2.53;;;1.20;;
61590;SDS011;71994;52.410;-1.966;2023-10-31T18:31:16;2.50;;;1.10;;
61590;SDS011;71994;52.410;-1.966;2023-10-31T18:34:25;3.65;;;1.27;;
61590;SDS011;71994;52.410;-1.966;2023-10-31T18:37:33;2.33;;;1.30;;
61590;SDS011;71994;52.410;-1.966;2023-10-31T18:40:41;2.67;;;1.45;;
61590;SDS011;71994;52.410;-1.966;2023-10-31T18:43:48;2.17;;;1.30;;